sensor_id;sensor_type;location;lat;lon;timestamp;P1;durP1;ratioP1;P2;durP2;ratioP2
65037;SDS011;51605;47.040;15.294;2022-09-09T00:00:39;0.35;;;0.35;;
65037;SDS011;51605;47.040;15.294;2022-09-09T00:03:14;0.55;;;0.30;;
65037;SDS011;51605;47.040;15.294;2022-09-09T00:08:33;0.30;;;0.30;;
65037;SDS011;51605;47.040;15.294;2022-09-09T00:11:04;3.30;;;0.82;;
65037;SDS011;51605;47.040;15.294;2022-09-09T00:16:08;0.35;;;0.32;;
65037;SDS011;51605;47.040;15.294;2022-09-09T00:21:35;0.50;;;0.40;;
65037;SDS011;51605;47.040;15.294;2022-09-09T00:26:51;0.47;;;0.40;;
65037;SDS011;51605;47.040;15.294;2022-09-09T00:29:25;0.70;;;0.40;;
65037;SDS011;51605;47.040;15.294;2022-09-09T00:32:05;0.30;;;0.30;;
65037;SDS011;51605;47.040;15.294;2022-09-09T00:34:54;0.63;;;0.45;;
65037;SDS011;51605;47.040;15.294;2022-09-09T00:37:41;0.40;;;0.40;;
65037;SDS011;51605;47.040;15.294;2022-09-09T00:40:17;1.40;;;0.75;;
65037;SDS011;51605;47.040;15.294;2022-09-09T00:42:51;0.30;;;0.30;;
65037;SDS011;51605;47.040;15.294;2022-09-09T00:48:29;0.32;;;0.20;;
65037;SDS011;51605;47.040;15.294;2022-09-09T00:51:15;0.68;;;0.30;;
65037;SDS011;51605;47.040;15.294;2022-09-09T00:56:36;0.40;;;0.40;;
65037;SDS011;51605;47.040;15.294;2022-09-09T01:01:55;0.52;;;0.40;;
65037;SDS011;51605;47.040;15.294;2022-09-09T01:04:23;1.55;;;0.40;;
65037;SDS011;51605;47.040;15.294;2022-09-09T01:07:07;0.45;;;0.45;;
65037;SDS011;51605;47.040;15.294;2022-09-09T01:18:02;1.92;;;0.40;;
65037;SDS011;51605;47.040;15.294;2022-09-09T01:20:37;0.35;;;0.35;;
65037;SDS011;51605;47.040;15.294;2022-09-09T01:28:31;0.88;;;0.50;;
65037;SDS011;51605;47.040;15.294;2022-09-09T01:31:00;0.28;;;0.28;;
65037;SDS011;51605;47.040;15.294;2022-09-09T01:33:29;0.50;;;0.47;;
65037;SDS011;51605;47.040;15.294;2022-09-09T01:36:05;0.90;;;0.50;;
65037;SDS011;51605;47.040;15.294;2022-09-09T01:38:37;1.02;;;0.50;;
65037;SDS011;51605;47.040;15.294;2022-09-09T01:41:03;0.95;;;0.40;;
65037;SDS011;51605;47.040;15.294;2022-09-09T01:43:29;0.40;;;0.40;;
65037;SDS011;51605;47.040;15.294;2022-09-09T01:45:56;0.60;;;0.30;;
65037;SDS011;51605;47.040;15.294;2022-09-09T01:48:25;0.85;;;0.40;;
65037;SDS011;51605;47.040;15.294;2022-09-09T01:50:51;0.87;;;0.60;;
65037;SDS011;51605;47.040;15.294;2022-09-09T01:53:17;0.83;;;0.50;;
65037;SDS011;51605;47.040;15.294;2022-09-09T02:00:42;0.40;;;0.40;;
65037;SDS011;51605;47.040;15.294;2022-09-09T02:03:18;0.40;;;0.40;;
65037;SDS011;51605;47.040;15.294;2022-09-09T02:08:50;0.75;;;0.43;;
65037;SDS011;51605;47.040;15.294;2022-09-09T02:11:21;0.57;;;0.50;;
65037;SDS011;51605;47.040;15.294;2022-09-09T02:13:50;1.55;;;0.50;;
65037;SDS011;51605;47.040;15.294;2022-09-09T02:16:27;0.40;;;0.40;;
65037;SDS011;51605;47.040;15.294;2022-09-09T02:19:09;1.02;;;0.50;;
65037;SDS011;51605;47.040;15.294;2022-09-09T02:21:42;0.75;;;0.50;;
65037;SDS011;51605;47.040;15.294;2022-09-09T02:24:10;0.90;;;0.52;;
65037;SDS011;51605;47.040;15.294;2022-09-09T02:26:41;0.57;;;0.55;;
65037;SDS011;51605;47.040;15.294;2022-09-09T02:29:11;0.40;;;0.40;;
65037;SDS011;51605;47.040;15.294;2022-09-09T02:31:43;0.65;;;0.40;;
65037;SDS011;51605;47.040;15.294;2022-09-09T02:34:10;0.60;;;0.60;;
65037;SDS011;51605;47.040;15.294;2022-09-09T02:36:38;0.55;;;0.55;;
65037;SDS011;51605;47.040;15.294;2022-09-09T02:39:08;0.60;;;0.57;;
65037;SDS011;51605;47.040;15.294;2022-09-09T02:41:36;0.47;;;0.47;;
65037;SDS011;51605;47.040;15.294;2022-09-09T02:44:10;1.08;;;0.50;;
65037;SDS011;51605;47.040;15.294;2022-09-09T02:49:25;0.52;;;0.52;;
65037;SDS011;51605;47.040;15.294;2022-09-09T02:52:02;0.60;;;0.60;;
65037;SDS011;51605;47.040;15.294;2022-09-09T02:54:35;0.90;;;0.60;;
65037;SDS011;51605;47.040;15.294;2022-09-09T02:57:08;0.68;;;0.60;;
65037;SDS011;51605;47.040;15.294;2022-09-09T02:59:44;0.57;;;0.57;;
65037;SDS011;51605;47.040;15.294;2022-09-09T03:02:10;0.87;;;0.60;;
65037;SDS011;51605;47.040;15.294;2022-09-09T03:04:37;1.15;;;0.57;;
65037;SDS011;51605;47.040;15.294;2022-09-09T03:07:04;0.52;;;0.52;;
65037;SDS011;51605;47.040;15.294;2022-09-09T03:09:30;0.90;;;0.50;;
65037;SDS011;51605;47.040;15.294;2022-09-09T03:11:57;0.73;;;0.60;;
65037;SDS011;51605;47.040;15.294;2022-09-09T03:14:23;1.50;;;0.73;;
65037;SDS011;51605;47.040;15.294;2022-09-09T03:16:52;0.50;;;0.50;;
65037;SDS011;51605;47.040;15.294;2022-09-09T03:19:19;0.60;;;0.52;;
65037;SDS011;51605;47.040;15.294;2022-09-09T03:21:46;0.80;;;0.70;;
65037;SDS011;51605;47.040;15.294;2022-09-09T03:24:12;0.73;;;0.60;;
65037;SDS011;51605;47.040;15.294;2022-09-09T03:26:39;1.10;;;0.70;;
65037;SDS011;51605;47.040;15.294;2022-09-09T03:29:06;0.50;;;0.50;;
65037;SDS011;51605;47.040;15.294;2022-09-09T03:31:32;1.90;;;0.60;;
65037;SDS011;51605;47.040;15.294;2022-09-09T03:36:25;0.82;;;0.70;;
65037;SDS011;51605;47.040;15.294;2022-09-09T03:38:51;0.60;;;0.60;;
65037;SDS011;51605;47.040;15.294;2022-09-09T03:41:17;0.60;;;0.60;;
65037;SDS011;51605;47.040;15.294;2022-09-09T03:43:43;1.23;;;0.63;;
65037;SDS011;51605;47.040;15.294;2022-09-09T03:46:09;0.70;;;0.70;;
65037;SDS011;51605;47.040;15.294;2022-09-09T03:48:35;0.60;;;0.60;;
65037;SDS011;51605;47.040;15.294;2022-09-09T03:51:00;1.33;;;0.60;;
65037;SDS011;51605;47.040;15.294;2022-09-09T03:53:28;1.15;;;0.65;;
65037;SDS011;51605;47.040;15.294;2022-09-09T03:55:55;0.93;;;0.70;;
65037;SDS011;51605;47.040;15.294;2022-09-09T03:58:24;0.70;;;0.70;;
65037;SDS011;51605;47.040;15.294;2022-09-09T04:00:55;0.90;;;0.70;;
65037;SDS011;51605;47.040;15.294;2022-09-09T04:03:34;2.15;;;0.80;;
65037;SDS011;51605;47.040;15.294;2022-09-09T04:06:00;2.38;;;0.70;;
65037;SDS011;51605;47.040;15.294;2022-09-09T04:08:28;2.08;;;0.75;;
65037;SDS011;51605;47.040;15.294;2022-09-09T04:10:56;2.28;;;0.60;;
65037;SDS011;51605;47.040;15.294;2022-09-09T04:13:23;2.08;;;0.77;;
65037;SDS011;51605;47.040;15.294;2022-09-09T04:15:50;0.60;;;0.60;;
65037;SDS011;51605;47.040;15.294;2022-09-09T04:18:18;1.02;;;0.80;;
65037;SDS011;51605;47.040;15.294;2022-09-09T04:20:46;0.80;;;0.60;;
65037;SDS011;51605;47.040;15.294;2022-09-09T04:23:15;0.73;;;0.73;;
65037;SDS011;51605;47.040;15.294;2022-09-09T04:25:44;0.70;;;0.70;;
65037;SDS011;51605;47.040;15.294;2022-09-09T04:28:11;1.63;;;0.63;;
65037;SDS011;51605;47.040;15.294;2022-09-09T04:30:38;0.80;;;0.70;;
65037;SDS011;51605;47.040;15.294;2022-09-09T04:33:05;2.92;;;0.70;;
65037;SDS011;51605;47.040;15.294;2022-09-09T04:35:31;0.73;;;0.63;;
65037;SDS011;51605;47.040;15.294;2022-09-09T04:37:57;1.05;;;0.70;;
65037;SDS011;51605;47.040;15.294;2022-09-09T04:40:23;1.80;;;0.50;;
65037;SDS011;51605;47.040;15.294;2022-09-09T04:42:50;2.90;;;0.73;;
65037;SDS011;51605;47.040;15.294;2022-09-09T04:45:16;1.17;;;0.70;;
65037;SDS011;51605;47.040;15.294;2022-09-09T04:47:41;3.20;;;0.77;;
65037;SDS011;51605;47.040;15.294;2022-09-09T04:50:07;1.23;;;0.70;;
65037;SDS011;51605;47.040;15.294;2022-09-09T04:52:34;2.80;;;0.70;;
65037;SDS011;51605;47.040;15.294;2022-09-09T04:55:00;2.10;;;0.60;;
65037;SDS011;51605;47.040;15.294;2022-09-09T04:57:26;0.63;;;0.63;;
65037;SDS011;51605;47.040;15.294;2022-09-09T04:59:52;0.97;;;0.47;;
65037;SDS011;51605;47.040;15.294;2022-09-09T05:02:17;1.77;;;0.60;;
65037;SDS011;51605;47.040;15.294;2022-09-09T05:04:43;1.43;;;0.70;;
65037;SDS011;51605;47.040;15.294;2022-09-09T05:07:09;0.70;;;0.70;;
65037;SDS011;51605;47.040;15.294;2022-09-09T05:09:35;2.53;;;0.90;;
65037;SDS011;51605;47.040;15.294;2022-09-09T05:12:01;0.63;;;0.60;;
65037;SDS011;51605;47.040;15.294;2022-09-09T05:14:27;1.40;;;0.80;;
65037;SDS011;51605;47.040;15.294;2022-09-09T05:16:54;1.45;;;0.68;;
65037;SDS011;51605;47.040;15.294;2022-09-09T05:19:21;0.73;;;0.73;;
65037;SDS011;51605;47.040;15.294;2022-09-09T05:21:46;1.13;;;0.70;;
65037;SDS011;51605;47.040;15.294;2022-09-09T05:24:12;1.03;;;0.80;;
65037;SDS011;51605;47.040;15.294;2022-09-09T05:26:38;0.93;;;0.67;;
65037;SDS011;51605;47.040;15.294;2022-09-09T05:29:03;0.60;;;0.60;;
65037;SDS011;51605;47.040;15.294;2022-09-09T05:31:30;1.03;;;0.83;;
65037;SDS011;51605;47.040;15.294;2022-09-09T05:33:56;2.20;;;0.82;;
65037;SDS011;51605;47.040;15.294;2022-09-09T05:36:22;0.67;;;0.67;;
65037;SDS011;51605;47.040;15.294;2022-09-09T05:38:48;0.77;;;0.77;;
65037;SDS011;51605;47.040;15.294;2022-09-09T05:41:15;1.85;;;0.60;;
65037;SDS011;51605;47.040;15.294;2022-09-09T05:43:41;0.70;;;0.70;;
65037;SDS011;51605;47.040;15.294;2022-09-09T05:46:10;0.95;;;0.70;;
65037;SDS011;51605;47.040;15.294;2022-09-09T05:48:39;0.60;;;0.60;;
65037;SDS011;51605;47.040;15.294;2022-09-09T05:51:06;2.50;;;0.73;;
65037;SDS011;51605;47.040;15.294;2022-09-09T05:53:35;1.48;;;0.80;;
65037;SDS011;51605;47.040;15.294;2022-09-09T05:56:02;0.85;;;0.80;;
65037;SDS011;51605;47.040;15.294;2022-09-09T05:58:36;0.88;;;0.70;;
65037;SDS011;51605;47.040;15.294;2022-09-09T06:01:03;0.80;;;0.80;;
65037;SDS011;51605;47.040;15.294;2022-09-09T06:03:31;0.80;;;0.60;;
65037;SDS011;51605;47.040;15.294;2022-09-09T06:06:02;1.98;;;0.68;;
65037;SDS011;51605;47.040;15.294;2022-09-09T06:08:35;5.85;;;1.00;;
65037;SDS011;51605;47.040;15.294;2022-09-09T06:11:04;1.02;;;0.70;;
65037;SDS011;51605;47.040;15.294;2022-09-09T06:13:34;0.90;;;0.70;;
65037;SDS011;51605;47.040;15.294;2022-09-09T06:16:03;0.68;;;0.68;;
65037;SDS011;51605;47.040;15.294;2022-09-09T06:18:32;1.80;;;0.68;;
65037;SDS011;51605;47.040;15.294;2022-09-09T06:21:01;0.60;;;0.60;;
65037;SDS011;51605;47.040;15.294;2022-09-09T06:23:32;1.20;;;0.70;;
65037;SDS011;51605;47.040;15.294;2022-09-09T06:26:05;1.17;;;0.70;;
65037;SDS011;51605;47.040;15.294;2022-09-09T06:28:34;0.85;;;0.60;;
65037;SDS011;51605;47.040;15.294;2022-09-09T06:33:32;0.83;;;0.77;;
65037;SDS011;51605;47.040;15.294;2022-09-09T06:35:59;0.60;;;0.60;;
65037;SDS011;51605;47.040;15.294;2022-09-09T06:38:26;1.70;;;0.70;;
65037;SDS011;51605;47.040;15.294;2022-09-09T06:40:56;1.60;;;0.60;;
65037;SDS011;51605;47.040;15.294;2022-09-09T06:43:24;0.60;;;0.60;;
65037;SDS011;51605;47.040;15.294;2022-09-09T06:45:57;1.05;;;0.63;;
65037;SDS011;51605;47.040;15.294;2022-09-09T06:48:24;0.60;;;0.60;;
65037;SDS011;51605;47.040;15.294;2022-09-09T06:50:51;0.80;;;0.60;;
65037;SDS011;51605;47.040;15.294;2022-09-09T06:53:27;0.80;;;0.70;;
65037;SDS011;51605;47.040;15.294;2022-09-09T06:55:53;1.83;;;1.00;;
65037;SDS011;51605;47.040;15.294;2022-09-09T06:58:19;1.05;;;0.77;;
65037;SDS011;51605;47.040;15.294;2022-09-09T07:00:47;2.03;;;0.90;;
65037;SDS011;51605;47.040;15.294;2022-09-09T07:03:13;0.85;;;0.70;;
65037;SDS011;51605;47.040;15.294;2022-09-09T07:05:38;0.80;;;0.80;;
65037;SDS011;51605;47.040;15.294;2022-09-09T07:08:04;0.60;;;0.60;;
65037;SDS011;51605;47.040;15.294;2022-09-09T07:10:30;0.70;;;0.70;;
65037;SDS011;51605;47.040;15.294;2022-09-09T07:12:56;1.93;;;1.00;;
65037;SDS011;51605;47.040;15.294;2022-09-09T07:15:22;0.80;;;0.80;;
65037;SDS011;51605;47.040;15.294;2022-09-09T07:17:48;0.85;;;0.75;;
65037;SDS011;51605;47.040;15.294;2022-09-09T07:20:13;0.87;;;0.70;;
65037;SDS011;51605;47.040;15.294;2022-09-09T07:22:40;1.10;;;0.80;;
65037;SDS011;51605;47.040;15.294;2022-09-09T07:25:06;2.00;;;0.80;;
65037;SDS011;51605;47.040;15.294;2022-09-09T07:27:33;0.73;;;0.70;;
65037;SDS011;51605;47.040;15.294;2022-09-09T07:29:58;1.23;;;0.77;;
65037;SDS011;51605;47.040;15.294;2022-09-09T07:32:24;0.60;;;0.60;;
65037;SDS011;51605;47.040;15.294;2022-09-09T07:34:55;0.85;;;0.60;;
65037;SDS011;51605;47.040;15.294;2022-09-09T07:37:23;1.13;;;0.85;;
65037;SDS011;51605;47.040;15.294;2022-09-09T07:39:49;1.15;;;0.70;;
65037;SDS011;51605;47.040;15.294;2022-09-09T07:42:16;0.98;;;0.60;;
65037;SDS011;51605;47.040;15.294;2022-09-09T07:44:41;2.17;;;0.80;;
65037;SDS011;51605;47.040;15.294;2022-09-09T07:47:07;0.80;;;0.70;;
65037;SDS011;51605;47.040;15.294;2022-09-09T07:49:33;1.00;;;0.90;;
65037;SDS011;51605;47.040;15.294;2022-09-09T07:51:58;0.80;;;0.70;;
65037;SDS011;51605;47.040;15.294;2022-09-09T07:54:24;0.90;;;0.68;;
65037;SDS011;51605;47.040;15.294;2022-09-09T07:56:51;0.70;;;0.68;;
65037;SDS011;51605;47.040;15.294;2022-09-09T07:59:17;1.17;;;0.80;;
65037;SDS011;51605;47.040;15.294;2022-09-09T08:01:44;1.42;;;0.70;;
65037;SDS011;51605;47.040;15.294;2022-09-09T08:04:21;2.00;;;0.75;;
65037;SDS011;51605;47.040;15.294;2022-09-09T08:06:49;1.55;;;0.80;;
65037;SDS011;51605;47.040;15.294;2022-09-09T08:09:18;0.90;;;0.70;;
65037;SDS011;51605;47.040;15.294;2022-09-09T08:11:44;1.23;;;0.90;;
65037;SDS011;51605;47.040;15.294;2022-09-09T08:14:10;0.70;;;0.70;;
65037;SDS011;51605;47.040;15.294;2022-09-09T08:16:37;0.98;;;0.80;;
65037;SDS011;51605;47.040;15.294;2022-09-09T08:19:05;1.75;;;0.90;;
65037;SDS011;51605;47.040;15.294;2022-09-09T08:21:32;0.70;;;0.70;;
65037;SDS011;51605;47.040;15.294;2022-09-09T08:24:00;0.95;;;0.80;;
65037;SDS011;51605;47.040;15.294;2022-09-09T08:26:30;1.10;;;0.90;;
65037;SDS011;51605;47.040;15.294;2022-09-09T08:28:59;1.15;;;0.90;;
65037;SDS011;51605;47.040;15.294;2022-09-09T08:31:43;0.98;;;0.70;;
65037;SDS011;51605;47.040;15.294;2022-09-09T08:34:13;1.60;;;0.90;;
65037;SDS011;51605;47.040;15.294;2022-09-09T08:36:40;0.70;;;0.70;;
65037;SDS011;51605;47.040;15.294;2022-09-09T08:39:07;1.10;;;1.00;;
65037;SDS011;51605;47.040;15.294;2022-09-09T08:50:26;0.80;;;0.75;;
65037;SDS011;51605;47.040;15.294;2022-09-09T08:55:37;1.42;;;1.05;;
65037;SDS011;51605;47.040;15.294;2022-09-09T08:58:09;0.80;;;0.80;;
65037;SDS011;51605;47.040;15.294;2022-09-09T09:00:51;1.48;;;0.90;;
65037;SDS011;51605;47.040;15.294;2022-09-09T09:11:33;2.05;;;0.90;;
65037;SDS011;51605;47.040;15.294;2022-09-09T09:14:05;0.80;;;0.80;;
65037;SDS011;51605;47.040;15.294;2022-09-09T09:19:21;1.45;;;0.80;;
65037;SDS011;51605;47.040;15.294;2022-09-09T09:30:35;1.00;;;0.90;;
65037;SDS011;51605;47.040;15.294;2022-09-09T09:35:50;0.70;;;0.70;;
65037;SDS011;51605;47.040;15.294;2022-09-09T09:40:50;1.75;;;0.80;;
65037;SDS011;51605;47.040;15.294;2022-09-09T09:45:55;2.03;;;0.88;;
65037;SDS011;51605;47.040;15.294;2022-09-09T09:48:23;1.70;;;0.85;;
65037;SDS011;51605;47.040;15.294;2022-09-09T09:55:49;0.77;;;0.77;;
65037;SDS011;51605;47.040;15.294;2022-09-09T10:01:22;3.13;;;0.80;;
65037;SDS011;51605;47.040;15.294;2022-09-09T10:03:50;4.00;;;0.75;;
65037;SDS011;51605;47.040;15.294;2022-09-09T10:06:17;0.88;;;0.70;;
65037;SDS011;51605;47.040;15.294;2022-09-09T10:08:53;0.80;;;0.80;;
65037;SDS011;51605;47.040;15.294;2022-09-09T10:19:15;1.02;;;0.90;;
65037;SDS011;51605;47.040;15.294;2022-09-09T10:27:27;0.88;;;0.77;;
65037;SDS011;51605;47.040;15.294;2022-09-09T10:36:19;1.35;;;0.90;;
65037;SDS011;51605;47.040;15.294;2022-09-09T10:38:41;1.02;;;0.90;;
65037;SDS011;51605;47.040;15.294;2022-09-09T10:47:27;2.10;;;0.82;;
65037;SDS011;51605;47.040;15.294;2022-09-09T10:55:20;1.02;;;0.70;;
65037;SDS011;51605;47.040;15.294;2022-09-09T10:57:57;0.80;;;0.80;;
65037;SDS011;51605;47.040;15.294;2022-09-09T11:00:29;0.80;;;0.80;;
65037;SDS011;51605;47.040;15.294;2022-09-09T11:03:02;0.70;;;0.70;;
65037;SDS011;51605;47.040;15.294;2022-09-09T11:08:30;2.10;;;0.80;;
65037;SDS011;51605;47.040;15.294;2022-09-09T11:13:54;1.25;;;0.73;;
65037;SDS011;51605;47.040;15.294;2022-09-09T11:16:45;2.13;;;0.77;;
65037;SDS011;51605;47.040;15.294;2022-09-09T11:24:41;3.15;;;0.90;;
65037;SDS011;51605;47.040;15.294;2022-09-09T11:27:16;1.10;;;0.70;;
65037;SDS011;51605;47.040;15.294;2022-09-09T11:40:42;1.52;;;0.80;;
65037;SDS011;51605;47.040;15.294;2022-09-09T11:43:10;1.25;;;0.80;;
65037;SDS011;51605;47.040;15.294;2022-09-09T11:45:39;0.93;;;0.80;;
65037;SDS011;51605;47.040;15.294;2022-09-09T11:48:27;1.02;;;0.80;;
65037;SDS011;51605;47.040;15.294;2022-09-09T11:51:03;2.58;;;0.82;;
65037;SDS011;51605;47.040;15.294;2022-09-09T11:53:34;0.70;;;0.70;;
65037;SDS011;51605;47.040;15.294;2022-09-09T11:56:13;0.75;;;0.70;;
65037;SDS011;51605;47.040;15.294;2022-09-09T11:59:22;0.70;;;0.70;;
65037;SDS011;51605;47.040;15.294;2022-09-09T12:01:55;3.40;;;1.00;;
65037;SDS011;51605;47.040;15.294;2022-09-09T12:04:41;0.88;;;0.70;;
65037;SDS011;51605;47.040;15.294;2022-09-09T12:16:02;0.93;;;0.75;;
65037;SDS011;51605;47.040;15.294;2022-09-09T12:18:34;0.70;;;0.70;;
65037;SDS011;51605;47.040;15.294;2022-09-09T12:21:21;0.70;;;0.70;;
65037;SDS011;51605;47.040;15.294;2022-09-09T12:24:15;1.35;;;0.80;;
65037;SDS011;51605;47.040;15.294;2022-09-09T12:32:39;1.10;;;0.85;;
65037;SDS011;51605;47.040;15.294;2022-09-09T12:37:49;1.02;;;0.82;;
65037;SDS011;51605;47.040;15.294;2022-09-09T12:42:48;0.70;;;0.70;;
65037;SDS011;51605;47.040;15.294;2022-09-09T12:50:57;1.13;;;0.70;;
65037;SDS011;51605;47.040;15.294;2022-09-09T12:53:24;1.00;;;0.88;;
65037;SDS011;51605;47.040;15.294;2022-09-09T12:55:57;1.63;;;0.80;;
65037;SDS011;51605;47.040;15.294;2022-09-09T12:58:30;1.33;;;0.80;;
65037;SDS011;51605;47.040;15.294;2022-09-09T13:01:00;0.98;;;0.80;;
65037;SDS011;51605;47.040;15.294;2022-09-09T13:03:30;0.75;;;0.75;;
65037;SDS011;51605;47.040;15.294;2022-09-09T13:05:58;0.70;;;0.70;;
65037;SDS011;51605;47.040;15.294;2022-09-09T13:08:36;0.73;;;0.70;;
65037;SDS011;51605;47.040;15.294;2022-09-09T13:11:03;1.10;;;0.80;;
65037;SDS011;51605;47.040;15.294;2022-09-09T13:16:03;1.10;;;0.93;;
65037;SDS011;51605;47.040;15.294;2022-09-09T13:18:33;2.03;;;0.80;;
65037;SDS011;51605;47.040;15.294;2022-09-09T13:21:00;1.58;;;0.90;;
65037;SDS011;51605;47.040;15.294;2022-09-09T13:23:28;1.00;;;0.80;;
65037;SDS011;51605;47.040;15.294;2022-09-09T13:25:57;0.98;;;0.70;;
65037;SDS011;51605;47.040;15.294;2022-09-09T13:28:29;2.13;;;0.80;;
65037;SDS011;51605;47.040;15.294;2022-09-09T13:30:57;1.15;;;0.80;;
65037;SDS011;51605;47.040;15.294;2022-09-09T13:33:31;1.00;;;0.70;;
65037;SDS011;51605;47.040;15.294;2022-09-09T13:35:59;1.10;;;0.80;;
65037;SDS011;51605;47.040;15.294;2022-09-09T13:38:28;0.70;;;0.70;;
65037;SDS011;51605;47.040;15.294;2022-09-09T13:41:04;0.70;;;0.70;;
65037;SDS011;51605;47.040;15.294;2022-09-09T13:43:34;1.10;;;0.70;;
65037;SDS011;51605;47.040;15.294;2022-09-09T13:46:24;0.98;;;0.90;;
65037;SDS011;51605;47.040;15.294;2022-09-09T13:48:55;1.35;;;0.80;;
65037;SDS011;51605;47.040;15.294;2022-09-09T13:54:14;1.08;;;0.77;;
65037;SDS011;51605;47.040;15.294;2022-09-09T13:56:41;1.10;;;0.85;;
65037;SDS011;51605;47.040;15.294;2022-09-09T13:59:10;0.90;;;0.80;;
65037;SDS011;51605;47.040;15.294;2022-09-09T14:01:40;1.13;;;0.90;;
65037;SDS011;51605;47.040;15.294;2022-09-09T14:04:06;0.68;;;0.68;;
65037;SDS011;51605;47.040;15.294;2022-09-09T14:06:34;1.23;;;0.93;;
65037;SDS011;51605;47.040;15.294;2022-09-09T14:09:02;1.10;;;0.85;;
65037;SDS011;51605;47.040;15.294;2022-09-09T14:11:28;1.23;;;0.90;;
65037;SDS011;51605;47.040;15.294;2022-09-09T14:13:53;2.88;;;1.05;;
65037;SDS011;51605;47.040;15.294;2022-09-09T14:16:19;0.77;;;0.77;;
65037;SDS011;51605;47.040;15.294;2022-09-09T14:18:47;1.38;;;0.80;;
65037;SDS011;51605;47.040;15.294;2022-09-09T14:21:13;1.33;;;1.00;;
65037;SDS011;51605;47.040;15.294;2022-09-09T14:23:40;1.52;;;0.98;;
65037;SDS011;51605;47.040;15.294;2022-09-09T14:26:06;1.40;;;0.90;;
65037;SDS011;51605;47.040;15.294;2022-09-09T14:28:32;1.00;;;0.90;;
65037;SDS011;51605;47.040;15.294;2022-09-09T14:31:00;2.45;;;0.82;;
65037;SDS011;51605;47.040;15.294;2022-09-09T14:36:00;2.73;;;1.20;;
65037;SDS011;51605;47.040;15.294;2022-09-09T14:38:29;2.05;;;1.00;;
65037;SDS011;51605;47.040;15.294;2022-09-09T14:40:59;1.52;;;1.00;;
65037;SDS011;51605;47.040;15.294;2022-09-09T14:43:28;0.98;;;0.90;;
65037;SDS011;51605;47.040;15.294;2022-09-09T14:48:20;3.47;;;2.00;;
65037;SDS011;51605;47.040;15.294;2022-09-09T14:50:46;2.38;;;1.40;;
65037;SDS011;51605;47.040;15.294;2022-09-09T14:53:11;1.60;;;1.20;;
65037;SDS011;51605;47.040;15.294;2022-09-09T14:55:37;2.88;;;1.10;;
65037;SDS011;51605;47.040;15.294;2022-09-09T14:58:03;2.50;;;1.00;;
65037;SDS011;51605;47.040;15.294;2022-09-09T15:00:29;1.33;;;0.90;;
65037;SDS011;51605;47.040;15.294;2022-09-09T15:02:55;1.83;;;1.00;;
65037;SDS011;51605;47.040;15.294;2022-09-09T15:05:21;1.70;;;1.20;;
65037;SDS011;51605;47.040;15.294;2022-09-09T15:07:47;3.13;;;1.10;;
65037;SDS011;51605;47.040;15.294;2022-09-09T15:10:13;1.58;;;1.02;;
65037;SDS011;51605;47.040;15.294;2022-09-09T15:12:39;2.67;;;1.00;;
65037;SDS011;51605;47.040;15.294;2022-09-09T15:17:33;1.23;;;0.90;;
65037;SDS011;51605;47.040;15.294;2022-09-09T15:19:59;1.80;;;1.20;;
65037;SDS011;51605;47.040;15.294;2022-09-09T15:22:24;1.47;;;0.90;;
65037;SDS011;51605;47.040;15.294;2022-09-09T15:24:50;1.60;;;1.00;;
65037;SDS011;51605;47.040;15.294;2022-09-09T15:27:16;1.53;;;0.80;;
65037;SDS011;51605;47.040;15.294;2022-09-09T15:29:43;1.77;;;0.80;;
65037;SDS011;51605;47.040;15.294;2022-09-09T15:32:09;1.90;;;1.00;;
65037;SDS011;51605;47.040;15.294;2022-09-09T15:34:35;1.00;;;0.80;;
65037;SDS011;51605;47.040;15.294;2022-09-09T15:37:00;1.02;;;0.88;;
65037;SDS011;51605;47.040;15.294;2022-09-09T15:39:26;1.30;;;0.90;;
65037;SDS011;51605;47.040;15.294;2022-09-09T15:41:52;1.30;;;0.90;;
65037;SDS011;51605;47.040;15.294;2022-09-09T15:44:18;1.57;;;1.00;;
65037;SDS011;51605;47.040;15.294;2022-09-09T15:49:20;1.52;;;0.90;;
65037;SDS011;51605;47.040;15.294;2022-09-09T15:52:09;1.40;;;0.90;;
65037;SDS011;51605;47.040;15.294;2022-09-09T15:54:36;1.25;;;0.88;;
65037;SDS011;51605;47.040;15.294;2022-09-09T15:57:04;1.15;;;0.80;;
65037;SDS011;51605;47.040;15.294;2022-09-09T15:59:31;1.23;;;0.90;;
65037;SDS011;51605;47.040;15.294;2022-09-09T16:01:57;1.17;;;0.70;;
65037;SDS011;51605;47.040;15.294;2022-09-09T16:04:24;1.58;;;0.80;;
65037;SDS011;51605;47.040;15.294;2022-09-09T16:07:01;0.75;;;0.70;;
65037;SDS011;51605;47.040;15.294;2022-09-09T16:09:29;1.42;;;0.80;;
65037;SDS011;51605;47.040;15.294;2022-09-09T16:14:23;1.33;;;0.90;;
65037;SDS011;51605;47.040;15.294;2022-09-09T16:16:50;1.63;;;0.90;;
65037;SDS011;51605;47.040;15.294;2022-09-09T16:19:16;1.80;;;0.90;;
65037;SDS011;51605;47.040;15.294;2022-09-09T16:21:45;1.13;;;0.73;;
65037;SDS011;51605;47.040;15.294;2022-09-09T16:24:13;1.08;;;0.70;;
65037;SDS011;51605;47.040;15.294;2022-09-09T16:26:43;1.33;;;0.90;;
65037;SDS011;51605;47.040;15.294;2022-09-09T16:29:11;0.80;;;0.80;;
65037;SDS011;51605;47.040;15.294;2022-09-09T16:31:39;0.93;;;0.75;;
65037;SDS011;51605;47.040;15.294;2022-09-09T16:34:05;0.80;;;0.80;;
65037;SDS011;51605;47.040;15.294;2022-09-09T16:36:32;0.80;;;0.80;;
65037;SDS011;51605;47.040;15.294;2022-09-09T16:38:59;0.85;;;0.80;;
65037;SDS011;51605;47.040;15.294;2022-09-09T16:41:27;1.15;;;0.80;;
65037;SDS011;51605;47.040;15.294;2022-09-09T16:46:21;1.75;;;1.00;;
65037;SDS011;51605;47.040;15.294;2022-09-09T16:48:47;1.05;;;0.90;;
65037;SDS011;51605;47.040;15.294;2022-09-09T16:51:15;1.27;;;0.95;;
65037;SDS011;51605;47.040;15.294;2022-09-09T16:53:43;1.30;;;0.90;;
65037;SDS011;51605;47.040;15.294;2022-09-09T16:56:31;1.23;;;0.80;;
65037;SDS011;51605;47.040;15.294;2022-09-09T16:58:58;2.13;;;1.00;;
65037;SDS011;51605;47.040;15.294;2022-09-09T17:01:29;1.20;;;0.80;;
65037;SDS011;51605;47.040;15.294;2022-09-09T17:03:58;1.50;;;0.85;;
65037;SDS011;51605;47.040;15.294;2022-09-09T17:06:29;1.00;;;0.70;;
65037;SDS011;51605;47.040;15.294;2022-09-09T17:11:22;0.95;;;0.85;;
65037;SDS011;51605;47.040;15.294;2022-09-09T17:13:48;1.42;;;0.80;;
65037;SDS011;51605;47.040;15.294;2022-09-09T17:16:15;0.88;;;0.70;;
65037;SDS011;51605;47.040;15.294;2022-09-09T17:18:42;1.55;;;0.80;;
65037;SDS011;51605;47.040;15.294;2022-09-09T17:21:09;1.40;;;0.80;;
65037;SDS011;51605;47.040;15.294;2022-09-09T17:23:42;0.80;;;0.70;;
65037;SDS011;51605;47.040;15.294;2022-09-09T17:26:09;1.80;;;1.00;;
65037;SDS011;51605;47.040;15.294;2022-09-09T17:28:37;1.45;;;0.90;;
65037;SDS011;51605;47.040;15.294;2022-09-09T17:31:04;0.90;;;0.80;;
65037;SDS011;51605;47.040;15.294;2022-09-09T17:33:32;0.98;;;0.80;;
65037;SDS011;51605;47.040;15.294;2022-09-09T17:36:00;1.77;;;0.85;;
65037;SDS011;51605;47.040;15.294;2022-09-09T17:38:31;2.47;;;0.80;;
65037;SDS011;51605;47.040;15.294;2022-09-09T17:41:31;0.80;;;0.80;;
65037;SDS011;51605;47.040;15.294;2022-09-09T17:43:50;0.93;;;0.80;;
65037;SDS011;51605;47.040;15.294;2022-09-09T17:46:18;0.73;;;0.73;;
65037;SDS011;51605;47.040;15.294;2022-09-09T17:48:46;1.33;;;0.82;;
65037;SDS011;51605;47.040;15.294;2022-09-09T17:51:14;0.85;;;0.77;;
65037;SDS011;51605;47.040;15.294;2022-09-09T17:53:44;0.80;;;0.80;;
65037;SDS011;51605;47.040;15.294;2022-09-09T17:56:13;1.13;;;0.80;;
65037;SDS011;51605;47.040;15.294;2022-09-09T17:58:41;0.70;;;0.70;;
65037;SDS011;51605;47.040;15.294;2022-09-09T18:01:08;0.70;;;0.70;;
65037;SDS011;51605;47.040;15.294;2022-09-09T18:03:36;1.23;;;0.85;;